Have a Safe July 4th! 

Flight Track Log - Related Links

Times and Time Zones

All times are in EDT time to prevent confusion due to time zone crossing. See the SKW4505 flight status page for this flight to view local times or setup timezone preferences in your user account.

Time Position Orientation Groundspeed Altitude Reporting Facility
EDT Latitude Longitude Course Direction KTS MPH feet Rate Location/Type
Mon 01:28:34 AM 32.7500 -117.2333 320° Northwest 195 224 2,400  Level Southern California TRACON
Mon 01:29:34 AM 32.8000 -117.3000 312° West 279 321 4,700 2,851 Climbing Southern California TRACON
Mon 01:30:00 AM 32.9274 -117.3773 320° Northwest  Level FlightAware Approximate
Mon 01:30:15 AM 32.8231 -117.3544 297° West 270 311 7,200  Level Los Angeles Center
Mon 01:31:00 AM 32.9921 -117.4419 320° Northwest  Level FlightAware Approximate
Mon 01:31:16 AM 32.8678 -117.4325 304° West 283 326 9,900  Level Los Angeles Center
Mon 01:32:00 AM 33.0569 -117.5066 320° Northwest  Level FlightAware Approximate
Mon 01:32:17 AM 32.9278 -117.5028 315° West 312 359 10,000  Level Los Angeles Center
Mon 01:33:00 AM 33.1216 -117.5714 320° Northwest  Level FlightAware Approximate
Mon 01:33:18 AM 33.0050 -117.5664 325° Northwest 336 387 10,000  Level Los Angeles Center
Mon 01:34:19 AM 33.0686 -117.6614 309° West 364 419 10,000  Level Los Angeles Center
Mon 01:35:20 AM 33.1306 -117.7583 307° West 367 422 10,000  Level Los Angeles Center
Mon 01:36:21 AM 33.2017 -117.8417 316° Northwest 370 426 10,000  Level Los Angeles Center
Mon 01:37:22 AM 33.3208 -117.8850 343° North 376 433 10,000 -197 Level Los Angeles Center
Mon 01:38:23 AM 33.4103 -117.9183 343° North 349 402 9,600 -934 Descending Los Angeles Center
Mon 01:39:24 AM 33.4861 -117.9456 343° North 297 342 8,100 -1,279 Descending Los Angeles Center
Mon 01:40:25 AM 33.5608 -117.9719 344° North 286 329 7,000 -532 Descending Los Angeles Center
Mon 01:41:28 AM 33.6333 -118.0000 342° North 279 321 7,000  Level Southern California TRACON
Mon 01:42:28 AM 33.7167 -118.0333 342° North 280 322 7,000  Level Southern California TRACON
Mon 01:43:28 AM 33.7833 -118.0500 348° North 253 291 7,000 -474 Level Southern California TRACON
Mon 01:44:22 AM 33.8500 -118.0667 348° North 253 291 6,100 -1,105 Descending Southern California TRACON
Mon 01:45:22 AM 33.9167 -118.0667 360° North 243 280 4,900 -1,000 Descending Southern California TRACON
Mon 01:46:34 AM 33.9667 -118.1333 312° West 192 221 3,900 -785 Descending Southern California TRACON
Mon 01:47:32 AM 33.9569 -118.1942 259° West 192 221 3,200 -857 Descending Los Angeles Center
Mon 01:48:33 AM 33.9514 -118.2542 264° West 185 213 2,200 -984 Descending Los Angeles Center

Login

Don't have an account? Register now (free) for customized features, flight alerts, and more!